sensor_id;sensor_type;location;lat;lon;timestamp;P1;durP1;ratioP1;P2;durP2;ratioP2
21769;SDS011;11046;49.558;8.674;2023-04-03T00:01:49;4.13;;;3.23;;
21769;SDS011;11046;49.558;8.674;2023-04-03T00:04:49;5.73;;;3.63;;
21769;SDS011;11046;49.558;8.674;2023-04-03T00:07:50;7.00;;;3.10;;
21769;SDS011;11046;49.558;8.674;2023-04-03T00:10:50;5.20;;;3.47;;
21769;SDS011;11046;49.558;8.674;2023-04-03T00:13:51;6.07;;;3.13;;
21769;SDS011;11046;49.558;8.674;2023-04-03T00:16:52;18.00;;;6.30;;
21769;SDS011;11046;49.558;8.674;2023-04-03T00:19:52;5.07;;;2.87;;
21769;SDS011;11046;49.558;8.674;2023-04-03T00:22:53;5.47;;;3.43;;
21769;SDS011;11046;49.558;8.674;2023-04-03T00:25:54;5.50;;;2.83;;
21769;SDS011;11046;49.558;8.674;2023-04-03T00:28:55;5.57;;;2.97;;
21769;SDS011;11046;49.558;8.674;2023-04-03T00:31:56;6.97;;;3.17;;
21769;SDS011;11046;49.558;8.674;2023-04-03T00:34:56;4.27;;;3.13;;
21769;SDS011;11046;49.558;8.674;2023-04-03T00:37:57;4.87;;;3.03;;
21769;SDS011;11046;49.558;8.674;2023-04-03T00:40:58;4.97;;;3.30;;
21769;SDS011;11046;49.558;8.674;2023-04-03T00:43:58;6.33;;;3.27;;
21769;SDS011;11046;49.558;8.674;2023-04-03T06:23:09;16.10;;;8.53;;
21769;SDS011;11046;49.558;8.674;2023-04-03T06:26:10;17.27;;;9.50;;
21769;SDS011;11046;49.558;8.674;2023-04-03T06:29:11;18.87;;;9.47;;
21769;SDS011;11046;49.558;8.674;2023-04-03T06:32:12;12.43;;;8.13;;
21769;SDS011;11046;49.558;8.674;2023-04-03T06:35:12;16.87;;;8.77;;
21769;SDS011;11046;49.558;8.674;2023-04-03T06:38:13;17.87;;;8.73;;
21769;SDS011;11046;49.558;8.674;2023-04-03T06:41:14;13.93;;;8.30;;
21769;SDS011;11046;49.558;8.674;2023-04-03T06:44:16;16.50;;;8.60;;
21769;SDS011;11046;49.558;8.674;2023-04-03T06:47:17;12.13;;;8.00;;
21769;SDS011;11046;49.558;8.674;2023-04-03T06:50:18;10.53;;;5.73;;
21769;SDS011;11046;49.558;8.674;2023-04-03T06:53:19;14.13;;;7.43;;
21769;SDS011;11046;49.558;8.674;2023-04-03T06:56:20;9.43;;;6.33;;
21769;SDS011;11046;49.558;8.674;2023-04-03T06:59:21;11.43;;;6.30;;
21769;SDS011;11046;49.558;8.674;2023-04-03T07:02:21;12.10;;;6.07;;
21769;SDS011;11046;49.558;8.674;2023-04-03T07:05:22;12.20;;;5.23;;
21769;SDS011;11046;49.558;8.674;2023-04-03T07:08:23;7.47;;;4.73;;
21769;SDS011;11046;49.558;8.674;2023-04-03T07:11:26;9.87;;;4.17;;
21769;SDS011;11046;49.558;8.674;2023-04-03T07:14:27;7.83;;;4.30;;
21769;SDS011;11046;49.558;8.674;2023-04-03T07:17:27;6.97;;;3.80;;
21769;SDS011;11046;49.558;8.674;2023-04-03T07:20:28;7.10;;;3.77;;
21769;SDS011;11046;49.558;8.674;2023-04-03T07:23:29;5.73;;;3.90;;
21769;SDS011;11046;49.558;8.674;2023-04-03T07:26:29;6.93;;;3.73;;
21769;SDS011;11046;49.558;8.674;2023-04-03T07:29:31;6.77;;;3.83;;
21769;SDS011;11046;49.558;8.674;2023-04-03T07:32:32;9.23;;;4.53;;
21769;SDS011;11046;49.558;8.674;2023-04-03T07:35:32;6.87;;;3.93;;
21769;SDS011;11046;49.558;8.674;2023-04-03T07:38:33;5.73;;;3.80;;
21769;SDS011;11046;49.558;8.674;2023-04-03T07:41:35;7.00;;;3.93;;
21769;SDS011;11046;49.558;8.674;2023-04-03T07:44:36;6.50;;;3.40;;
21769;SDS011;11046;49.558;8.674;2023-04-03T07:47:36;5.33;;;3.03;;
21769;SDS011;11046;49.558;8.674;2023-04-03T07:50:37;7.33;;;3.30;;
21769;SDS011;11046;49.558;8.674;2023-04-03T07:53:40;6.90;;;4.03;;
21769;SDS011;11046;49.558;8.674;2023-04-03T07:56:41;8.80;;;3.00;;
21769;SDS011;11046;49.558;8.674;2023-04-03T07:59:42;6.80;;;3.10;;
21769;SDS011;11046;49.558;8.674;2023-04-03T08:02:43;5.10;;;2.63;;
21769;SDS011;11046;49.558;8.674;2023-04-03T08:05:45;5.33;;;2.70;;
21769;SDS011;11046;49.558;8.674;2023-04-03T08:08:47;6.07;;;2.73;;
21769;SDS011;11046;49.558;8.674;2023-04-03T08:11:47;5.77;;;2.43;;
21769;SDS011;11046;49.558;8.674;2023-04-03T08:14:48;6.43;;;2.40;;
21769;SDS011;11046;49.558;8.674;2023-04-03T08:17:49;8.20;;;2.47;;
21769;SDS011;11046;49.558;8.674;2023-04-03T08:20:50;3.00;;;1.93;;
21769;SDS011;11046;49.558;8.674;2023-04-03T08:23:51;6.03;;;2.27;;
21769;SDS011;11046;49.558;8.674;2023-04-03T08:26:52;3.70;;;2.10;;
21769;SDS011;11046;49.558;8.674;2023-04-03T08:29:53;7.07;;;2.03;;
21769;SDS011;11046;49.558;8.674;2023-04-03T08:32:54;6.70;;;2.27;;
21769;SDS011;11046;49.558;8.674;2023-04-03T08:35:55;8.37;;;2.20;;
21769;SDS011;11046;49.558;8.674;2023-04-03T08:38:56;6.73;;;2.27;;
21769;SDS011;11046;49.558;8.674;2023-04-03T08:41:57;3.63;;;1.67;;
21769;SDS011;11046;49.558;8.674;2023-04-03T08:45:09;3.30;;;1.93;;
21769;SDS011;11046;49.558;8.674;2023-04-03T08:48:15;3.97;;;1.63;;
21769;SDS011;11046;49.558;8.674;2023-04-03T08:51:23;5.13;;;2.03;;
21769;SDS011;11046;49.558;8.674;2023-04-03T08:54:28;4.37;;;1.53;;
21769;SDS011;11046;49.558;8.674;2023-04-03T08:57:38;2.83;;;1.97;;
21769;SDS011;11046;49.558;8.674;2023-04-03T09:04:01;3.27;;;1.87;;
21769;SDS011;11046;49.558;8.674;2023-04-03T09:07:12;3.57;;;1.80;;
21769;SDS011;11046;49.558;8.674;2023-04-03T09:10:23;3.20;;;1.80;;
21769;SDS011;11046;49.558;8.674;2023-04-03T09:13:30;4.80;;;2.23;;
21769;SDS011;11046;49.558;8.674;2023-04-03T09:20:07;2.70;;;1.40;;
21769;SDS011;11046;49.558;8.674;2023-04-03T09:23:21;3.17;;;1.87;;
21769;SDS011;11046;49.558;8.674;2023-04-03T09:27:05;4.00;;;1.70;;
21769;SDS011;11046;49.558;8.674;2023-04-03T09:29:52;3.97;;;1.77;;
21769;SDS011;11046;49.558;8.674;2023-04-03T09:32:55;2.77;;;1.60;;
21769;SDS011;11046;49.558;8.674;2023-04-03T09:35:57;2.43;;;1.40;;
21769;SDS011;11046;49.558;8.674;2023-04-03T09:39:04;2.93;;;1.30;;
21769;SDS011;11046;49.558;8.674;2023-04-03T09:42:23;2.10;;;1.20;;
21769;SDS011;11046;49.558;8.674;2023-04-03T09:48:32;5.10;;;1.60;;
21769;SDS011;11046;49.558;8.674;2023-04-03T09:51:33;5.10;;;1.90;;
21769;SDS011;11046;49.558;8.674;2023-04-03T09:54:35;2.37;;;1.30;;
21769;SDS011;11046;49.558;8.674;2023-04-03T09:57:38;6.20;;;1.60;;
21769;SDS011;11046;49.558;8.674;2023-04-03T10:00:39;4.53;;;1.90;;
21769;SDS011;11046;49.558;8.674;2023-04-03T10:03:40;4.30;;;1.60;;
21769;SDS011;11046;49.558;8.674;2023-04-03T10:06:53;4.53;;;1.80;;
21769;SDS011;11046;49.558;8.674;2023-04-03T10:09:56;3.80;;;1.50;;
21769;SDS011;11046;49.558;8.674;2023-04-03T10:13:05;4.17;;;1.70;;
21769;SDS011;11046;49.558;8.674;2023-04-03T10:16:54;2.57;;;1.60;;
21769;SDS011;11046;49.558;8.674;2023-04-03T10:26:24;2.20;;;1.30;;
21769;SDS011;11046;49.558;8.674;2023-04-03T10:39:34;3.37;;;1.60;;
21769;SDS011;11046;49.558;8.674;2023-04-03T10:43:02;3.63;;;1.77;;
21769;SDS011;11046;49.558;8.674;2023-04-03T10:46:33;5.10;;;1.47;;
21769;SDS011;11046;49.558;8.674;2023-04-03T10:52:46;2.28;;;1.60;;
21769;SDS011;11046;49.558;8.674;2023-04-03T10:56:01;3.63;;;1.80;;
21769;SDS011;11046;49.558;8.674;2023-04-03T11:05:40;2.33;;;1.80;;
21769;SDS011;11046;49.558;8.674;2023-04-03T11:08:51;3.80;;;1.67;;
21769;SDS011;11046;49.558;8.674;2023-04-03T11:16:07;4.83;;;2.00;;
21769;SDS011;11046;49.558;8.674;2023-04-03T11:22:25;3.77;;;1.60;;
21769;SDS011;11046;49.558;8.674;2023-04-03T11:25:31;8.07;;;2.10;;
21769;SDS011;11046;49.558;8.674;2023-04-03T11:28:35;3.40;;;1.90;;
21769;SDS011;11046;49.558;8.674;2023-04-03T11:31:52;4.90;;;2.00;;
21769;SDS011;11046;49.558;8.674;2023-04-03T11:34:58;4.43;;;2.20;;
21769;SDS011;11046;49.558;8.674;2023-04-03T11:38:02;4.57;;;2.17;;
21769;SDS011;11046;49.558;8.674;2023-04-03T11:41:07;2.70;;;2.07;;
21769;SDS011;11046;49.558;8.674;2023-04-03T11:47:45;4.67;;;2.23;;
21769;SDS011;11046;49.558;8.674;2023-04-03T11:50:50;2.97;;;2.27;;
21769;SDS011;11046;49.558;8.674;2023-04-03T11:53:51;3.77;;;2.10;;
21769;SDS011;11046;49.558;8.674;2023-04-03T11:56:52;5.07;;;2.10;;
21769;SDS011;11046;49.558;8.674;2023-04-03T11:59:53;4.93;;;1.90;;
21769;SDS011;11046;49.558;8.674;2023-04-03T12:02:54;2.73;;;1.90;;
21769;SDS011;11046;49.558;8.674;2023-04-03T12:09:10;3.57;;;2.10;;
21769;SDS011;11046;49.558;8.674;2023-04-03T12:22:16;4.07;;;2.10;;
21769;SDS011;11046;49.558;8.674;2023-04-03T12:28:48;3.40;;;1.77;;
21769;SDS011;11046;49.558;8.674;2023-04-03T12:35:14;4.30;;;1.70;;
21769;SDS011;11046;49.558;8.674;2023-04-03T12:45:25;3.77;;;2.30;;
21769;SDS011;11046;49.558;8.674;2023-04-03T12:48:27;5.47;;;2.30;;
21769;SDS011;11046;49.558;8.674;2023-04-03T12:51:34;4.23;;;2.10;;
21769;SDS011;11046;49.558;8.674;2023-04-03T12:54:40;4.03;;;2.30;;
21769;SDS011;11046;49.558;8.674;2023-04-03T12:57:41;6.20;;;2.40;;
21769;SDS011;11046;49.558;8.674;2023-04-03T13:00:42;5.43;;;2.00;;
21769;SDS011;11046;49.558;8.674;2023-04-03T13:03:44;2.57;;;1.93;;
21769;SDS011;11046;49.558;8.674;2023-04-03T13:06:47;3.47;;;2.30;;
21769;SDS011;11046;49.558;8.674;2023-04-03T13:09:58;10.60;;;2.40;;
21769;SDS011;11046;49.558;8.674;2023-04-03T13:13:07;5.97;;;2.67;;
21769;SDS011;11046;49.558;8.674;2023-04-03T13:16:09;4.40;;;2.20;;
21769;SDS011;11046;49.558;8.674;2023-04-03T13:19:15;2.50;;;1.90;;
21769;SDS011;11046;49.558;8.674;2023-04-03T13:22:36;4.63;;;2.20;;
21769;SDS011;11046;49.558;8.674;2023-04-03T13:25:44;4.97;;;2.20;;
21769;SDS011;11046;49.558;8.674;2023-04-03T13:28:45;4.10;;;2.30;;
21769;SDS011;11046;49.558;8.674;2023-04-03T13:31:47;3.37;;;2.30;;
21769;SDS011;11046;49.558;8.674;2023-04-03T13:34:54;5.07;;;2.67;;
21769;SDS011;11046;49.558;8.674;2023-04-03T13:38:00;5.93;;;2.50;;
21769;SDS011;11046;49.558;8.674;2023-04-03T13:44:36;4.97;;;2.00;;
21769;SDS011;11046;49.558;8.674;2023-04-03T13:47:40;2.93;;;1.80;;
21769;SDS011;11046;49.558;8.674;2023-04-03T13:50:50;2.23;;;1.90;;
21769;SDS011;11046;49.558;8.674;2023-04-03T13:53:53;6.88;;;2.10;;
21769;SDS011;11046;49.558;8.674;2023-04-03T13:56:55;3.13;;;1.80;;
21769;SDS011;11046;49.558;8.674;2023-04-03T13:59:57;5.43;;;2.00;;
21769;SDS011;11046;49.558;8.674;2023-04-03T14:02:58;4.15;;;1.77;;
21769;SDS011;11046;49.558;8.674;2023-04-03T14:05:58;6.13;;;2.30;;
21769;SDS011;11046;49.558;8.674;2023-04-03T14:09:05;6.57;;;2.00;;
21769;SDS011;11046;49.558;8.674;2023-04-03T14:15:30;3.83;;;1.85;;
21769;SDS011;11046;49.558;8.674;2023-04-03T14:18:33;3.58;;;1.92;;
21769;SDS011;11046;49.558;8.674;2023-04-03T14:21:34;3.22;;;2.15;;
21769;SDS011;11046;49.558;8.674;2023-04-03T14:24:35;4.80;;;1.83;;
21769;SDS011;11046;49.558;8.674;2023-04-03T14:27:38;3.47;;;2.10;;
21769;SDS011;11046;49.558;8.674;2023-04-03T14:30:40;4.40;;;2.10;;
21769;SDS011;11046;49.558;8.674;2023-04-03T14:33:42;3.42;;;1.85;;
21769;SDS011;11046;49.558;8.674;2023-04-03T14:36:43;2.40;;;1.90;;
21769;SDS011;11046;49.558;8.674;2023-04-03T14:39:46;3.65;;;2.10;;
21769;SDS011;11046;49.558;8.674;2023-04-03T14:42:47;2.90;;;1.90;;
21769;SDS011;11046;49.558;8.674;2023-04-03T14:45:49;3.88;;;1.80;;
21769;SDS011;11046;49.558;8.674;2023-04-03T14:48:50;3.13;;;1.85;;
21769;SDS011;11046;49.558;8.674;2023-04-03T14:51:51;3.65;;;1.83;;
21769;SDS011;11046;49.558;8.674;2023-04-03T14:54:53;3.80;;;1.90;;
21769;SDS011;11046;49.558;8.674;2023-04-03T14:57:54;5.13;;;1.67;;
21769;SDS011;11046;49.558;8.674;2023-04-03T15:00:55;2.50;;;1.65;;
21769;SDS011;11046;49.558;8.674;2023-04-03T15:03:55;2.83;;;1.60;;
21769;SDS011;11046;49.558;8.674;2023-04-03T15:06:56;3.30;;;1.90;;
21769;SDS011;11046;49.558;8.674;2023-04-03T15:09:56;2.57;;;1.90;;
21769;SDS011;11046;49.558;8.674;2023-04-03T15:12:57;3.80;;;1.60;;
21769;SDS011;11046;49.558;8.674;2023-04-03T15:15:58;2.93;;;1.93;;
21769;SDS011;11046;49.558;8.674;2023-04-03T15:18:59;4.30;;;1.80;;
21769;SDS011;11046;49.558;8.674;2023-04-03T15:21:59;4.17;;;1.60;;
21769;SDS011;11046;49.558;8.674;2023-04-03T15:25:00;2.42;;;1.70;;
21769;SDS011;11046;49.558;8.674;2023-04-03T15:28:01;2.77;;;1.70;;
21769;SDS011;11046;49.558;8.674;2023-04-03T15:31:02;3.67;;;1.60;;
21769;SDS011;11046;49.558;8.674;2023-04-03T15:34:03;3.30;;;2.27;;
21769;SDS011;11046;49.558;8.674;2023-04-03T15:37:03;2.67;;;1.70;;
21769;SDS011;11046;49.558;8.674;2023-04-03T15:40:05;2.73;;;1.80;;
21769;SDS011;11046;49.558;8.674;2023-04-03T15:43:06;2.57;;;1.87;;
21769;SDS011;11046;49.558;8.674;2023-04-03T15:46:07;4.60;;;2.20;;
21769;SDS011;11046;49.558;8.674;2023-04-03T15:49:08;4.17;;;1.73;;
21769;SDS011;11046;49.558;8.674;2023-04-03T15:52:08;5.47;;;1.97;;
21769;SDS011;11046;49.558;8.674;2023-04-03T15:55:09;3.97;;;1.63;;
21769;SDS011;11046;49.558;8.674;2023-04-03T15:58:10;3.10;;;1.90;;
21769;SDS011;11046;49.558;8.674;2023-04-03T16:01:10;2.87;;;1.60;;
21769;SDS011;11046;49.558;8.674;2023-04-03T16:04:12;2.37;;;1.70;;
21769;SDS011;11046;49.558;8.674;2023-04-03T16:07:13;5.13;;;1.93;;
21769;SDS011;11046;49.558;8.674;2023-04-03T16:10:16;12.17;;;2.30;;
21769;SDS011;11046;49.558;8.674;2023-04-03T16:13:19;3.57;;;1.90;;
21769;SDS011;11046;49.558;8.674;2023-04-03T16:16:20;4.57;;;1.80;;
21769;SDS011;11046;49.558;8.674;2023-04-03T16:19:22;4.40;;;1.67;;
21769;SDS011;11046;49.558;8.674;2023-04-03T16:22:23;3.13;;;1.90;;
21769;SDS011;11046;49.558;8.674;2023-04-03T16:25:26;5.90;;;1.90;;
21769;SDS011;11046;49.558;8.674;2023-04-03T16:28:26;2.93;;;1.80;;
21769;SDS011;11046;49.558;8.674;2023-04-03T16:31:27;4.27;;;2.20;;
21769;SDS011;11046;49.558;8.674;2023-04-03T16:34:28;5.17;;;2.07;;
21769;SDS011;11046;49.558;8.674;2023-04-03T16:37:30;2.13;;;1.40;;
21769;SDS011;11046;49.558;8.674;2023-04-03T16:40:31;2.67;;;1.70;;
21769;SDS011;11046;49.558;8.674;2023-04-03T16:43:33;3.77;;;1.80;;
21769;SDS011;11046;49.558;8.674;2023-04-03T16:46:35;2.70;;;1.60;;
21769;SDS011;11046;49.558;8.674;2023-04-03T16:49:36;3.60;;;1.87;;
21769;SDS011;11046;49.558;8.674;2023-04-03T16:52:36;3.43;;;2.07;;
21769;SDS011;11046;49.558;8.674;2023-04-03T16:55:37;6.63;;;1.80;;
21769;SDS011;11046;49.558;8.674;2023-04-03T16:58:39;2.47;;;1.60;;
21769;SDS011;11046;49.558;8.674;2023-04-03T17:01:40;3.70;;;2.10;;
21769;SDS011;11046;49.558;8.674;2023-04-03T17:04:40;2.50;;;1.73;;
21769;SDS011;11046;49.558;8.674;2023-04-03T17:07:41;4.50;;;2.30;;
21769;SDS011;11046;49.558;8.674;2023-04-03T17:10:41;4.17;;;2.03;;
21769;SDS011;11046;49.558;8.674;2023-04-03T17:13:42;4.87;;;1.97;;
21769;SDS011;11046;49.558;8.674;2023-04-03T17:16:42;4.00;;;2.10;;
21769;SDS011;11046;49.558;8.674;2023-04-03T17:19:43;7.00;;;2.13;;
21769;SDS011;11046;49.558;8.674;2023-04-03T17:22:44;4.47;;;2.20;;
21769;SDS011;11046;49.558;8.674;2023-04-03T17:25:45;3.80;;;2.10;;
21769;SDS011;11046;49.558;8.674;2023-04-03T17:28:46;5.60;;;1.80;;
21769;SDS011;11046;49.558;8.674;2023-04-03T17:31:46;6.60;;;3.30;;
21769;SDS011;11046;49.558;8.674;2023-04-03T17:34:47;4.90;;;2.40;;
21769;SDS011;11046;49.558;8.674;2023-04-03T17:37:48;3.43;;;2.20;;
21769;SDS011;11046;49.558;8.674;2023-04-03T17:41:03;5.07;;;3.33;;
21769;SDS011;11046;49.558;8.674;2023-04-03T17:44:06;5.67;;;3.10;;
21769;SDS011;11046;49.558;8.674;2023-04-03T17:47:06;4.30;;;2.60;;
21769;SDS011;11046;49.558;8.674;2023-04-03T17:50:07;5.07;;;2.60;;
21769;SDS011;11046;49.558;8.674;2023-04-03T17:53:08;5.60;;;2.60;;
21769;SDS011;11046;49.558;8.674;2023-04-03T17:56:13;4.60;;;2.43;;
21769;SDS011;11046;49.558;8.674;2023-04-03T17:59:15;6.63;;;3.27;;
21769;SDS011;11046;49.558;8.674;2023-04-03T18:02:16;4.27;;;2.40;;
21769;SDS011;11046;49.558;8.674;2023-04-03T18:05:17;3.70;;;2.37;;
21769;SDS011;11046;49.558;8.674;2023-04-03T18:08:18;6.97;;;2.50;;
21769;SDS011;11046;49.558;8.674;2023-04-03T18:11:19;4.00;;;2.40;;
21769;SDS011;11046;49.558;8.674;2023-04-03T18:14:23;5.13;;;3.00;;
21769;SDS011;11046;49.558;8.674;2023-04-03T18:17:26;5.37;;;2.67;;
21769;SDS011;11046;49.558;8.674;2023-04-03T18:20:31;8.93;;;4.10;;
21769;SDS011;11046;49.558;8.674;2023-04-03T18:23:32;6.40;;;3.57;;
21769;SDS011;11046;49.558;8.674;2023-04-03T18:26:36;9.17;;;4.70;;
21769;SDS011;11046;49.558;8.674;2023-04-03T18:29:37;5.10;;;2.97;;
21769;SDS011;11046;49.558;8.674;2023-04-03T18:32:41;5.03;;;3.03;;
21769;SDS011;11046;49.558;8.674;2023-04-03T18:35:43;11.40;;;6.33;;
21769;SDS011;11046;49.558;8.674;2023-04-03T18:38:44;7.73;;;3.93;;
21769;SDS011;11046;49.558;8.674;2023-04-03T18:41:45;6.77;;;3.80;;
21769;SDS011;11046;49.558;8.674;2023-04-03T18:44:48;8.73;;;3.60;;
21769;SDS011;11046;49.558;8.674;2023-04-03T18:47:52;12.47;;;6.80;;
21769;SDS011;11046;49.558;8.674;2023-04-03T18:50:54;10.40;;;5.83;;
21769;SDS011;11046;49.558;8.674;2023-04-03T18:53:55;9.47;;;5.23;;
21769;SDS011;11046;49.558;8.674;2023-04-03T18:56:56;11.07;;;5.40;;
21769;SDS011;11046;49.558;8.674;2023-04-03T19:00:00;12.97;;;7.20;;
21769;SDS011;11046;49.558;8.674;2023-04-03T19:03:01;13.10;;;7.57;;
21769;SDS011;11046;49.558;8.674;2023-04-03T19:06:02;17.13;;;8.53;;
21769;SDS011;11046;49.558;8.674;2023-04-03T19:09:05;9.03;;;4.80;;
21769;SDS011;11046;49.558;8.674;2023-04-03T19:12:07;7.17;;;3.70;;
21769;SDS011;11046;49.558;8.674;2023-04-03T19:15:08;7.30;;;3.97;;
21769;SDS011;11046;49.558;8.674;2023-04-03T19:18:11;6.53;;;3.93;;
21769;SDS011;11046;49.558;8.674;2023-04-03T19:21:13;9.17;;;4.40;;
21769;SDS011;11046;49.558;8.674;2023-04-03T19:24:15;7.37;;;4.07;;
21769;SDS011;11046;49.558;8.674;2023-04-03T19:27:17;7.43;;;3.93;;
21769;SDS011;11046;49.558;8.674;2023-04-03T19:30:18;6.07;;;3.80;;
21769;SDS011;11046;49.558;8.674;2023-04-03T19:33:19;5.33;;;3.07;;
21769;SDS011;11046;49.558;8.674;2023-04-03T19:36:20;34.87;;;13.47;;
21769;SDS011;11046;49.558;8.674;2023-04-03T19:39:21;29.40;;;11.57;;
21769;SDS011;11046;49.558;8.674;2023-04-03T19:42:22;15.73;;;6.57;;
21769;SDS011;11046;49.558;8.674;2023-04-03T19:45:22;20.03;;;8.27;;
21769;SDS011;11046;49.558;8.674;2023-04-03T19:48:26;21.40;;;9.20;;
21769;SDS011;11046;49.558;8.674;2023-04-03T19:51:26;22.53;;;9.57;;
21769;SDS011;11046;49.558;8.674;2023-04-03T19:54:27;13.00;;;5.57;;
21769;SDS011;11046;49.558;8.674;2023-04-03T19:57:28;12.90;;;4.80;;
21769;SDS011;11046;49.558;8.674;2023-04-03T20:00:30;15.07;;;6.50;;
21769;SDS011;11046;49.558;8.674;2023-04-03T20:03:31;14.57;;;5.87;;
21769;SDS011;11046;49.558;8.674;2023-04-03T20:06:34;8.07;;;3.63;;
21769;SDS011;11046;49.558;8.674;2023-04-03T20:09:35;7.53;;;4.00;;
21769;SDS011;11046;49.558;8.674;2023-04-03T20:12:36;10.47;;;5.50;;
21769;SDS011;11046;49.558;8.674;2023-04-03T20:15:39;5.00;;;3.00;;
21769;SDS011;11046;49.558;8.674;2023-04-03T20:18:40;6.53;;;3.73;;
21769;SDS011;11046;49.558;8.674;2023-04-03T20:21:41;9.73;;;3.97;;
21769;SDS011;11046;49.558;8.674;2023-04-03T20:24:42;4.80;;;2.90;;
21769;SDS011;11046;49.558;8.674;2023-04-03T20:27:42;4.73;;;2.97;;
21769;SDS011;11046;49.558;8.674;2023-04-03T20:30:48;4.97;;;3.07;;
21769;SDS011;11046;49.558;8.674;2023-04-03T20:33:50;5.10;;;2.60;;
21769;SDS011;11046;49.558;8.674;2023-04-03T20:36:51;7.87;;;2.93;;
21769;SDS011;11046;49.558;8.674;2023-04-03T20:39:52;3.30;;;2.50;;
21769;SDS011;11046;49.558;8.674;2023-04-03T20:42:53;8.47;;;3.03;;
21769;SDS011;11046;49.558;8.674;2023-04-03T20:45:55;13.63;;;3.13;;
21769;SDS011;11046;49.558;8.674;2023-04-03T20:49:01;7.87;;;3.17;;
21769;SDS011;11046;49.558;8.674;2023-04-03T20:52:03;8.30;;;3.40;;
21769;SDS011;11046;49.558;8.674;2023-04-03T20:55:05;6.37;;;3.07;;
21769;SDS011;11046;49.558;8.674;2023-04-03T20:58:08;6.00;;;2.93;;
21769;SDS011;11046;49.558;8.674;2023-04-03T21:01:12;6.37;;;2.67;;
21769;SDS011;11046;49.558;8.674;2023-04-03T21:21:51;8.53;;;4.13;;
21769;SDS011;11046;49.558;8.674;2023-04-03T21:24:54;5.60;;;2.93;;
21769;SDS011;11046;49.558;8.674;2023-04-03T21:27:56;7.33;;;2.97;;
21769;SDS011;11046;49.558;8.674;2023-04-03T21:30:59;5.87;;;2.97;;
21769;SDS011;11046;49.558;8.674;2023-04-03T21:34:00;6.67;;;2.50;;
21769;SDS011;11046;49.558;8.674;2023-04-03T21:37:02;4.13;;;2.70;;
21769;SDS011;11046;49.558;8.674;2023-04-03T21:40:05;7.93;;;2.80;;
21769;SDS011;11046;49.558;8.674;2023-04-03T21:43:07;5.27;;;2.87;;
21769;SDS011;11046;49.558;8.674;2023-04-03T21:46:08;7.03;;;2.67;;
21769;SDS011;11046;49.558;8.674;2023-04-03T21:49:09;6.17;;;2.50;;
21769;SDS011;11046;49.558;8.674;2023-04-03T21:52:11;6.90;;;2.60;;
21769;SDS011;11046;49.558;8.674;2023-04-03T21:55:11;5.73;;;3.13;;
21769;SDS011;11046;49.558;8.674;2023-04-03T21:58:15;4.27;;;2.50;;
21769;SDS011;11046;49.558;8.674;2023-04-03T22:01:17;4.50;;;2.40;;
21769;SDS011;11046;49.558;8.674;2023-04-03T22:04:18;6.93;;;2.80;;
21769;SDS011;11046;49.558;8.674;2023-04-03T22:07:19;5.73;;;2.53;;
21769;SDS011;11046;49.558;8.674;2023-04-03T22:10:19;3.83;;;2.70;;
21769;SDS011;11046;49.558;8.674;2023-04-03T22:13:20;7.07;;;2.90;;
21769;SDS011;11046;49.558;8.674;2023-04-03T22:16:20;3.63;;;2.50;;
21769;SDS011;11046;49.558;8.674;2023-04-03T22:19:22;5.00;;;2.67;;
21769;SDS011;11046;49.558;8.674;2023-04-03T22:22:22;7.80;;;3.53;;
21769;SDS011;11046;49.558;8.674;2023-04-03T22:25:23;6.73;;;2.70;;
21769;SDS011;11046;49.558;8.674;2023-04-03T22:28:24;7.07;;;2.63;;
21769;SDS011;11046;49.558;8.674;2023-04-03T22:31:26;7.10;;;3.10;;
21769;SDS011;11046;49.558;8.674;2023-04-03T22:34:27;5.47;;;2.90;;
21769;SDS011;11046;49.558;8.674;2023-04-03T22:37:27;7.13;;;3.13;;
21769;SDS011;11046;49.558;8.674;2023-04-03T22:40:28;4.33;;;2.63;;
21769;SDS011;11046;49.558;8.674;2023-04-03T22:43:29;5.07;;;2.90;;
21769;SDS011;11046;49.558;8.674;2023-04-03T22:46:30;7.90;;;2.80;;
21769;SDS011;11046;49.558;8.674;2023-04-03T22:49:31;4.07;;;2.70;;
21769;SDS011;11046;49.558;8.674;2023-04-03T22:52:31;5.40;;;3.00;;
21769;SDS011;11046;49.558;8.674;2023-04-03T22:55:32;4.43;;;3.00;;
21769;SDS011;11046;49.558;8.674;2023-04-03T22:58:33;6.87;;;2.70;;
21769;SDS011;11046;49.558;8.674;2023-04-03T23:01:33;5.70;;;2.80;;
21769;SDS011;11046;49.558;8.674;2023-04-03T23:04:34;8.40;;;3.20;;
21769;SDS011;11046;49.558;8.674;2023-04-03T23:07:35;5.00;;;3.20;;
21769;SDS011;11046;49.558;8.674;2023-04-03T23:10:35;4.90;;;2.60;;
21769;SDS011;11046;49.558;8.674;2023-04-03T23:13:36;11.83;;;2.97;;
21769;SDS011;11046;49.558;8.674;2023-04-03T23:16:37;5.93;;;2.93;;
21769;SDS011;11046;49.558;8.674;2023-04-03T23:19:37;4.73;;;3.13;;
21769;SDS011;11046;49.558;8.674;2023-04-03T23:22:38;4.87;;;3.17;;
21769;SDS011;11046;49.558;8.674;2023-04-03T23:25:41;4.23;;;2.83;;
21769;SDS011;11046;49.558;8.674;2023-04-03T23:28:41;9.00;;;2.90;;
21769;SDS011;11046;49.558;8.674;2023-04-03T23:31:42;4.57;;;2.70;;
21769;SDS011;11046;49.558;8.674;2023-04-03T23:34:42;5.93;;;3.10;;
21769;SDS011;11046;49.558;8.674;2023-04-03T23:37:43;6.20;;;2.73;;
21769;SDS011;11046;49.558;8.674;2023-04-03T23:40:44;4.63;;;2.40;;
21769;SDS011;11046;49.558;8.674;2023-04-03T23:43:45;7.77;;;3.10;;
21769;SDS011;11046;49.558;8.674;2023-04-03T23:46:46;4.80;;;2.77;;
21769;SDS011;11046;49.558;8.674;2023-04-03T23:49:47;4.73;;;2.60;;
21769;SDS011;11046;49.558;8.674;2023-04-03T23:52:47;4.97;;;2.80;;
21769;SDS011;11046;49.558;8.674;2023-04-03T23:55:48;6.60;;;2.77;;
21769;SDS011;11046;49.558;8.674;2023-04-03T23:58:49;4.40;;;3.00;;
